Pagina principale
METAR-TAF:

METAR-TAF

Aeroporti :

Užice, Serbia

latitudine: 43-53-56N, longitudine: 19-41-52E, altezza: 904 m

Osservazione

Il bollettino è stato emesso 30 minuti fa, alle 20:00 UTC
Vento 2 kt da direzioni variabili
Temperature 13°C
Umidità 100%
Pressione 1009 hPa
Visibilità 10 km o più

METAR: LYUZ 252000Z AUTO VRB02KT 9999 OVC017/// 13/13 Q1009

Ora: 22:30 (20:30 UTC)

Previsione

Il bollettino è stato emesso 9 ore e 30 minuti fa, alle 11:00 UTC
Previsione valida dal 25 alle 12 UTC al 26 alle 12 UTC
Vento 12 kt da ovest
Visibilità: 6000 m
Nubi sparse ad un'altezza di 300 ft
Nuvoloso ad un'altezza di 1500 ft
Evoluzione graduale
dal 25 alle 14 UTC al 25 alle 16 UTC
Vento 4 kt da sud-ovest
Nubi sparse ad un'altezza di 2000 ft

TAF: LYUZ 251100Z 2512/2612 28012KT 6000 SCT003 BKN015 TX20/2612Z TN10/2603Z BECMG 2514/2516 22004KT SCT020

Osservazioni e previsioni meteorologiche di più di 4000 aeroporti (messaggi METAR e TAF).

Le stazioni disponibili sono rappresentate dai dischi gialli e rossi sulla carta.

Puntare il mouse per vedere il nome della stazione.

Clicca sopra per visualizzare le osservazioni e previsioni meteorologiche.

Per cambiare la mappa : fare clic sui pulsanti verdi con una croce nera per ingrandire, il pulsante verde con un trattino per diminuire, o sulla freccia verde per le mappe adiacenti.


METAR-TAF: